Time;durP1;ratioP1;P1;durP2;ratioP2;P2;SDS_P1;SDS_P2;PMS_P1;PMS_P2;Temp;Humidity;BMP_temperature;BMP_pressure;BME280_temperature;BME280_humidity;BME280_pressure;Samples;Min_cycle;Max_cycle;Signal;HPM_P1;HPM_P2
2023/12/01 00:01:04;;;;;;;20.80;7.93;;;3.40;98.00;;;;;;4953770;28;20492;-67
2023/12/01 00:03:31;;;;;;;16.10;7.00;;;3.40;98.00;;;;;;4953521;28;20973;-67
2023/12/01 00:06:00;;;;;;;17.13;7.13;;;3.40;98.00;;;;;;4953539;28;20448;-67
2023/12/01 00:08:27;;;;;;;15.63;7.10;;;3.40;98.00;;;;;;4953457;28;20483;-67
2023/12/01 00:10:54;;;;;;;16.20;7.23;;;3.30;98.00;;;;;;4953390;28;20462;-67
2023/12/01 00:13:22;;;;;;;20.77;8.03;;;3.20;98.00;;;;;;4953399;29;20451;-67
2023/12/01 00:15:49;;;;;;;18.60;7.70;;;3.10;98.00;;;;;;4953419;28;21038;-67
2023/12/01 00:18:16;;;;;;;21.60;7.90;;;3.00;98.00;;;;;;4953487;28;20582;-67
2023/12/01 00:20:43;;;;;;;20.37;7.50;;;3.10;98.00;;;;;;4953137;28;21017;-67
2023/12/01 00:23:12;;;;;;;17.73;8.37;;;3.20;98.00;;;;;;4953162;28;20560;-67
2023/12/01 00:25:39;;;;;;;19.00;8.50;;;3.20;98.00;;;;;;4953233;28;20453;-67
2023/12/01 00:28:06;;;;;;;26.33;8.83;;;3.20;98.00;;;;;;4951875;29;20991;-67
2023/12/01 00:30:33;;;;;;;20.60;7.97;;;3.10;98.00;;;;;;4953051;28;20455;-67
2023/12/01 00:33:00;;;;;;;20.63;8.87;;;3.20;98.00;;;;;;4953039;28;20963;-67
2023/12/01 00:35:27;;;;;;;23.87;8.80;;;3.10;98.00;;;;;;4952996;28;20456;-67
2023/12/01 00:37:54;;;;;;;22.13;8.53;;;3.10;98.00;;;;;;4953170;28;20873;-67
2023/12/01 00:40:23;;;;;;;17.77;7.97;;;3.10;98.00;;;;;;4953053;28;20515;-67
2023/12/01 00:42:50;;;;;;;18.40;7.80;;;3.10;98.00;;;;;;4952915;28;20475;-67
2023/12/01 00:45:17;;;;;;;16.87;7.00;;;3.20;98.00;;;;;;4953429;28;20454;-67
2023/12/01 00:47:44;;;;;;;16.87;7.63;;;3.30;98.00;;;;;;4956815;28;20459;-67
2023/12/01 00:50:23;;;;;;;21.10;8.60;;;3.50;98.00;;;;;;4956856;28;20463;-67
2023/12/01 00:52:51;;;;;;;19.83;8.60;;;3.40;98.00;;;;;;4956876;28;20464;-67
2023/12/01 00:55:18;;;;;;;20.27;8.67;;;3.40;98.00;;;;;;4956810;28;20515;-67
2023/12/01 00:57:46;;;;;;;20.13;8.70;;;3.20;98.00;;;;;;4956745;28;20454;-67
2023/12/01 01:00:14;;;;;;;23.40;8.60;;;3.20;98.00;;;;;;4956634;28;20486;-67
2023/12/01 01:02:42;;;;;;;19.20;8.00;;;3.10;98.00;;;;;;4956562;28;20463;-67
2023/12/01 01:05:09;;;;;;;22.63;9.00;;;3.10;98.00;;;;;;4955527;29;20456;-67
2023/12/01 01:07:37;;;;;;;24.57;10.17;;;3.10;98.00;;;;;;4956588;28;20533;-67
2023/12/01 01:10:04;;;;;;;22.70;8.93;;;3.00;98.00;;;;;;4956593;28;21012;-67
2023/12/01 01:12:31;;;;;;;19.37;9.13;;;3.00;98.00;;;;;;4956586;28;20463;-66
2023/12/01 01:15:02;;;;;;;24.67;8.20;;;3.10;98.00;;;;;;4956660;28;20454;-67
2023/12/01 01:17:29;;;;;;;27.10;8.87;;;3.10;98.00;;;;;;4956347;28;20458;-67
2023/12/01 01:19:58;;;;;;;17.60;7.50;;;3.20;98.00;;;;;;4956277;28;20525;-66
2023/12/01 01:22:25;;;;;;;18.83;7.83;;;3.20;98.00;;;;;;4956199;28;20864;-66
2023/12/01 01:24:52;;;;;;;18.13;8.40;;;3.30;98.00;;;;;;4956238;28;20506;-67
2023/12/01 01:27:20;;;;;;;23.70;9.37;;;3.20;98.00;;;;;;4956298;28;20457;-66
2023/12/01 01:29:47;;;;;;;18.43;7.53;;;3.20;98.00;;;;;;4956222;28;20982;-67
2023/12/01 01:32:16;;;;;;;18.90;7.73;;;3.20;98.00;;;;;;4956392;28;20867;-67
2023/12/01 01:34:43;;;;;;;15.70;7.03;;;3.20;98.00;;;;;;4956155;28;20824;-67
2023/12/01 01:37:10;;;;;;;16.97;7.90;;;3.10;98.00;;;;;;4956261;28;20463;-67
2023/12/01 01:39:37;;;;;;;23.13;9.00;;;3.00;98.00;;;;;;4956197;28;20451;-67
2023/12/01 01:42:04;;;;;;;22.27;8.40;;;3.00;98.00;;;;;;4956332;28;20486;-67
2023/12/01 01:44:31;;;;;;;21.83;7.70;;;3.00;98.00;;;;;;4956250;28;20459;-67
2023/12/01 01:46:59;;;;;;;16.70;7.33;;;3.00;98.00;;;;;;4956092;28;20823;-67
2023/12/01 01:49:28;;;;;;;21.27;8.40;;;3.00;98.00;;;;;;4955933;28;20466;-67
2023/12/01 01:51:56;;;;;;;18.13;8.27;;;3.10;98.00;;;;;;4955872;28;20468;-67
2023/12/01 01:54:24;;;;;;;20.53;8.47;;;3.20;98.00;;;;;;4955836;28;20459;-66
2023/12/01 01:56:53;;;;;;;20.53;7.83;;;3.20;98.00;;;;;;4953749;28;20488;-67
2023/12/01 01:59:21;;;;;;;21.70;8.50;;;3.30;98.00;;;;;;4955500;28;20444;-67
2023/12/01 02:01:48;;;;;;;20.83;7.43;;;3.30;98.00;;;;;;4955553;28;20499;-67
2023/12/01 02:04:16;;;;;;;18.80;7.80;;;3.30;98.00;;;;;;4955417;28;20950;-67
2023/12/01 02:06:45;;;;;;;17.13;7.70;;;3.20;98.00;;;;;;4955695;28;20490;-67
2023/12/01 02:09:13;;;;;;;18.17;7.70;;;3.10;98.00;;;;;;4955296;28;20457;-67
2023/12/01 02:11:40;;;;;;;15.27;7.50;;;3.10;98.00;;;;;;4955400;28;20482;-67
2023/12/01 02:14:07;;;;;;;20.40;8.47;;;3.10;98.00;;;;;;4955577;28;20567;-66
2023/12/01 02:16:34;;;;;;;21.60;8.57;;;3.10;98.00;;;;;;4955410;28;20506;-66
2023/12/01 02:19:01;;;;;;;14.50;6.73;;;3.20;98.00;;;;;;4955130;28;20450;-67
2023/12/01 02:21:35;;;;;;;20.63;8.30;;;3.20;98.00;;;;;;4955067;28;20490;-67
2023/12/01 02:24:03;;;;;;;18.10;7.80;;;3.20;98.00;;;;;;4955102;28;20476;-67
2023/12/01 02:26:30;;;;;;;20.47;8.20;;;3.20;98.00;;;;;;4955337;28;20447;-67
2023/12/01 02:28:57;;;;;;;20.43;8.20;;;3.20;98.00;;;;;;4955064;28;20452;-67
2023/12/01 02:31:24;;;;;;;23.63;7.60;;;3.20;98.00;;;;;;4955155;28;20473;-67
2023/12/01 02:33:53;;;;;;;21.40;8.10;;;3.20;98.00;;;;;;4955003;28;20468;-66
2023/12/01 02:36:21;;;;;;;20.93;7.80;;;3.20;98.00;;;;;;4955150;28;20517;-67
2023/12/01 02:38:50;;;;;;;17.90;7.93;;;3.10;98.00;;;;;;4954917;28;20460;-67
2023/12/01 02:41:18;;;;;;;22.10;8.50;;;3.10;98.00;;;;;;4954972;28;20500;-67
2023/12/01 02:43:47;;;;;;;17.27;7.97;;;3.10;98.00;;;;;;4954848;28;20590;-67
2023/12/01 02:46:14;;;;;;;19.23;8.03;;;3.10;98.00;;;;;;4954823;28;20498;-67
2023/12/01 02:48:42;;;;;;;18.27;7.80;;;3.00;98.00;;;;;;4954719;28;20461;-67
2023/12/01 02:51:09;;;;;;;19.40;7.33;;;2.90;98.00;;;;;;4954817;28;20456;-67
2023/12/01 02:53:36;;;;;;;23.83;7.97;;;2.90;98.00;;;;;;4954915;28;20479;-67
2023/12/01 02:56:05;;;;;;;17.80;7.77;;;2.90;98.00;;;;;;4954668;28;20978;-67
2023/12/01 02:58:34;;;;;;;18.40;7.30;;;2.80;98.00;;;;;;4954516;28;20459;-67
2023/12/01 03:01:03;;;;;;;19.60;8.00;;;2.80;98.00;;;;;;4954541;28;21009;-67
2023/12/01 03:03:30;;;;;;;20.40;7.20;;;2.80;98.00;;;;;;4954568;28;20459;-67
2023/12/01 03:05:57;;;;;;;15.03;7.10;;;2.90;98.00;;;;;;4954602;28;20458;-67
2023/12/01 03:08:24;;;;;;;19.13;7.83;;;2.90;98.00;;;;;;4954197;28;20451;-67
2023/12/01 03:10:51;;;;;;;16.37;6.80;;;2.90;98.00;;;;;;4953146;29;20470;-67
2023/12/01 03:13:21;;;;;;;22.03;7.80;;;3.00;98.00;;;;;;4954484;28;20528;-67
2023/12/01 03:15:49;;;;;;;20.70;8.60;;;3.00;98.00;;;;;;4954257;28;20457;-66
2023/12/01 03:18:17;;;;;;;19.67;8.73;;;2.90;98.00;;;;;;4954343;28;20509;-67
2023/12/01 03:20:44;;;;;;;22.10;8.90;;;2.90;98.00;;;;;;4954062;28;20457;-67
2023/12/01 03:23:11;;;;;;;24.53;9.13;;;2.80;98.00;;;;;;4954187;28;20970;-67
2023/12/01 03:25:38;;;;;;;25.07;9.00;;;2.70;98.00;;;;;;4954352;28;20538;-67
2023/12/01 03:28:05;;;;;;;23.67;8.90;;;2.80;98.00;;;;;;4954291;28;20468;-67
2023/12/01 03:30:34;;;;;;;25.30;8.27;;;2.90;98.00;;;;;;4954449;28;20502;-67
2023/12/01 03:33:00;;;;;;;16.20;7.47;;;2.80;98.00;;;;;;4954080;28;20963;-66
2023/12/01 03:35:28;;;;;;;21.07;8.00;;;2.90;98.00;;;;;;4954057;28;20513;-66
2023/12/01 03:37:56;;;;;;;24.00;8.20;;;2.90;98.00;;;;;;4953777;28;20452;-67
2023/12/01 03:40:24;;;;;;;19.67;7.60;;;2.90;98.00;;;;;;4954102;28;20527;-66
2023/12/01 03:42:51;;;;;;;20.70;7.70;;;2.90;98.00;;;;;;4953675;28;20485;-67
2023/12/01 03:45:19;;;;;;;21.00;7.17;;;2.80;98.00;;;;;;4954039;28;20455;-67
2023/12/01 03:47:49;;;;;;;18.77;8.47;;;2.90;98.00;;;;;;4953761;28;20467;-67
2023/12/01 03:50:44;;;;;;;24.33;9.40;;;2.90;98.00;;;;;;4953832;28;20479;-66
2023/12/01 03:53:11;;;;;;;18.40;8.20;;;2.90;98.00;;;;;;4953902;28;20455;-67
2023/12/01 03:55:39;;;;;;;19.37;7.80;;;2.90;98.00;;;;;;4953550;28;20457;-67
2023/12/01 03:58:06;;;;;;;21.17;8.40;;;3.00;98.00;;;;;;4953587;28;20800;-67
2023/12/01 04:00:35;;;;;;;22.23;8.70;;;3.00;98.00;;;;;;4953559;28;20459;-67
2023/12/01 04:03:03;;;;;;;18.63;7.53;;;2.90;98.00;;;;;;4953390;28;20491;-67
2023/12/01 04:05:30;;;;;;;14.73;7.70;;;2.90;98.00;;;;;;4953649;28;20451;-67
2023/12/01 04:07:57;;;;;;;19.00;7.70;;;2.90;98.00;;;;;;4953361;28;20498;-67
2023/12/01 04:10:25;;;;;;;18.83;8.00;;;2.80;98.00;;;;;;4953502;28;20869;-67
2023/12/01 04:12:52;;;;;;;19.93;7.60;;;2.80;98.00;;;;;;4953317;28;20459;-67
2023/12/01 04:15:20;;;;;;;20.40;8.27;;;2.80;98.00;;;;;;4953291;28;20459;-67
2023/12/01 04:17:48;;;;;;;19.60;7.17;;;2.80;98.00;;;;;;4953272;28;20985;-67
2023/12/01 04:20:25;;;;;;;19.00;8.40;;;2.90;98.00;;;;;;4952724;28;20456;-66
2023/12/01 04:22:53;;;;;;;17.97;7.30;;;2.80;98.00;;;;;;4952297;28;20496;-67
2023/12/01 04:25:20;;;;;;;15.20;7.67;;;2.70;98.00;;;;;;4953343;28;20634;-67
2023/12/01 04:27:48;;;;;;;17.00;7.17;;;2.70;98.00;;;;;;4953179;28;20451;-67
2023/12/01 04:30:17;;;;;;;15.87;7.63;;;2.60;98.00;;;;;;4953180;29;20533;-67
2023/12/01 04:32:46;;;;;;;18.50;7.40;;;2.60;98.00;;;;;;4953055;28;20462;-67
2023/12/01 04:35:13;;;;;;;19.40;8.40;;;2.60;98.00;;;;;;4953208;28;20856;-67
2023/12/01 04:37:43;;;;;;;22.00;7.80;;;2.60;98.00;;;;;;4953175;28;20463;-67
2023/12/01 04:40:14;;;;;;;18.10;7.63;;;2.70;98.00;;;;;;4953179;28;20463;-66
2023/12/01 04:42:43;;;;;;;17.33;7.90;;;2.60;98.00;;;;;;4953027;28;20499;-67
2023/12/01 04:45:12;;;;;;;15.50;7.07;;;2.50;98.00;;;;;;4953018;28;20816;-67
2023/12/01 04:47:41;;;;;;;26.83;8.40;;;2.50;98.00;;;;;;4953139;28;20545;-67
2023/12/01 04:50:12;;;;;;;21.00;7.30;;;2.50;98.00;;;;;;4952873;28;20504;-67
2023/12/01 04:52:42;;;;;;;17.83;7.77;;;2.50;98.00;;;;;;4953187;28;20828;-66
2023/12/01 04:55:13;;;;;;;20.17;8.20;;;2.50;98.00;;;;;;4953081;28;20983;-66
2023/12/01 04:57:40;;;;;;;17.10;7.00;;;2.50;98.00;;;;;;4952937;28;20461;-67
2023/12/01 05:00:19;;;;;;;18.17;7.47;;;2.50;98.00;;;;;;4952920;28;20459;-67
2023/12/01 05:02:51;;;;;;;26.23;8.43;;;2.40;98.00;;;;;;4952861;28;20570;-67
2023/12/01 05:05:19;;;;;;;17.50;7.37;;;2.40;98.00;;;;;;4953016;28;20463;-67
2023/12/01 05:07:49;;;;;;;25.90;8.90;;;2.40;98.00;;;;;;4952783;28;20454;-67
2023/12/01 05:10:17;;;;;;;24.63;8.47;;;2.40;98.00;;;;;;4953002;28;20467;-67
2023/12/01 05:12:45;;;;;;;21.30;8.17;;;2.40;98.00;;;;;;4952916;28;20451;-66
2023/12/01 05:15:16;;;;;;;20.70;8.13;;;2.40;98.00;;;;;;4953089;28;20830;-67
2023/12/01 05:17:47;;;;;;;19.13;7.87;;;2.40;98.00;;;;;;4953067;28;20898;-67
2023/12/01 05:20:18;;;;;;;20.67;7.90;;;2.30;98.00;;;;;;4953242;28;20839;-66
2023/12/01 05:22:51;;;;;;;18.30;7.97;;;2.30;98.00;;;;;;4952768;28;20498;-67
2023/12/01 05:25:20;;;;;;;18.90;8.10;;;2.40;98.00;;;;;;4953010;28;20463;-67
2023/12/01 05:27:49;;;;;;;17.87;7.47;;;2.50;98.00;;;;;;4952581;28;20463;-67
2023/12/01 05:30:17;;;;;;;19.20;8.30;;;2.60;98.00;;;;;;4952717;28;20985;-67
2023/12/01 05:32:47;;;;;;;16.40;7.17;;;2.60;98.00;;;;;;4955079;28;20462;-66
2023/12/01 05:35:18;;;;;;;19.30;8.97;;;2.70;98.00;;;;;;4956259;28;20461;-67
2023/12/01 05:37:47;;;;;;;18.20;7.73;;;2.70;98.00;;;;;;4956264;28;20458;-67
2023/12/01 05:40:18;;;;;;;22.17;8.13;;;2.70;98.00;;;;;;4956327;28;20455;-67
2023/12/01 05:42:46;;;;;;;19.07;7.57;;;2.60;98.00;;;;;;4956338;28;20587;-66
2023/12/01 05:45:14;;;;;;;19.93;7.40;;;2.70;98.00;;;;;;4956176;28;20466;-67
2023/12/01 05:47:43;;;;;;;18.40;7.70;;;2.80;98.00;;;;;;4956235;28;20464;-67
2023/12/01 05:50:21;;;;;;;22.80;8.30;;;2.80;98.00;;;;;;4956052;28;20984;-67
2023/12/01 05:52:51;;;;;;;20.50;7.80;;;2.80;98.00;;;;;;4955917;28;20738;-66
2023/12/01 05:55:23;;;;;;;18.83;7.90;;;2.70;98.00;;;;;;4955902;28;20465;-66
2023/12/01 05:57:52;;;;;;;24.13;8.43;;;2.70;98.00;;;;;;4955732;28;20478;-67
2023/12/01 06:00:21;;;;;;;23.90;9.00;;;2.80;98.00;;;;;;4955650;28;20482;-67
2023/12/01 06:02:50;;;;;;;18.37;7.20;;;2.80;98.00;;;;;;4955597;28;20833;-67
2023/12/01 06:05:19;;;;;;;15.20;7.37;;;2.70;98.00;;;;;;4955712;28;20459;-67
2023/12/01 06:07:49;;;;;;;26.30;8.30;;;2.80;98.00;;;;;;4955685;28;20489;-66
2023/12/01 06:10:17;;;;;;;21.83;8.27;;;2.80;98.00;;;;;;4955295;28;20734;-66
2023/12/01 06:12:47;;;;;;;19.83;8.53;;;2.70;98.00;;;;;;4955459;28;20463;-67
2023/12/01 06:15:16;;;;;;;23.20;8.60;;;2.70;98.00;;;;;;4955688;28;20454;-67
2023/12/01 06:17:45;;;;;;;26.93;9.60;;;2.70;98.00;;;;;;4955479;28;20516;-66
2023/12/01 06:20:19;;;;;;;20.47;9.03;;;2.60;98.00;;;;;;4955442;28;20454;-66
2023/12/01 06:22:47;;;;;;;24.60;8.87;;;2.50;98.00;;;;;;4955447;28;20698;-67
2023/12/01 06:25:15;;;;;;;20.50;8.17;;;2.40;98.00;;;;;;4955213;28;20965;-66
2023/12/01 06:27:42;;;;;;;21.67;8.50;;;2.40;98.00;;;;;;4955291;28;20822;-66
2023/12/01 06:30:13;;;;;;;20.97;8.33;;;2.50;98.00;;;;;;4955211;28;20951;-66
2023/12/01 06:32:41;;;;;;;26.07;9.10;;;2.50;98.00;;;;;;4955122;28;20458;-67
2023/12/01 06:35:12;;;;;;;20.43;7.73;;;2.50;98.00;;;;;;4955340;28;20499;-67
2023/12/01 06:37:39;;;;;;;20.30;8.33;;;2.50;98.00;;;;;;4955203;28;20484;-67
2023/12/01 06:40:11;;;;;;;20.77;8.50;;;2.60;98.00;;;;;;4955027;28;20551;-67
2023/12/01 06:42:40;;;;;;;21.43;8.13;;;2.70;98.00;;;;;;4954845;28;20783;-67
2023/12/01 06:45:11;;;;;;;23.57;8.27;;;2.70;98.00;;;;;;4953308;29;20490;-66
2023/12/01 06:47:40;;;;;;;19.10;8.70;;;2.70;98.00;;;;;;4955291;28;20518;-66
2023/12/01 06:50:09;;;;;;;25.03;8.73;;;2.80;98.00;;;;;;4955018;28;20462;-67
2023/12/01 06:52:37;;;;;;;24.37;9.30;;;2.70;98.00;;;;;;4955132;28;20984;-66
2023/12/01 06:55:04;;;;;;;22.57;9.43;;;2.60;98.00;;;;;;4955051;28;20471;-66
2023/12/01 06:57:31;;;;;;;22.73;9.40;;;2.60;98.00;;;;;;4954928;28;20483;-66
2023/12/01 07:00:00;;;;;;;22.57;9.17;;;2.60;98.00;;;;;;4954735;28;20462;-66
2023/12/01 07:02:30;;;;;;;22.30;9.10;;;2.50;98.00;;;;;;4954831;28;20482;-66
2023/12/01 07:04:57;;;;;;;24.77;8.70;;;2.50;98.00;;;;;;4953746;29;20825;-66
2023/12/01 07:07:24;;;;;;;21.27;8.70;;;2.50;98.00;;;;;;4954898;28;20454;-66
2023/12/01 07:09:52;;;;;;;19.40;8.40;;;2.50;98.00;;;;;;4953591;29;20464;-61
2023/12/01 07:12:21;;;;;;;21.87;9.33;;;2.50;98.00;;;;;;4954562;28;20970;-61
2023/12/01 07:14:48;;;;;;;18.40;8.17;;;2.50;98.00;;;;;;4954709;28;20450;-61
2023/12/01 07:17:16;;;;;;;21.60;9.10;;;2.50;98.00;;;;;;4954529;28;20458;-61
2023/12/01 07:19:46;;;;;;;19.37;8.00;;;2.50;98.00;;;;;;4953185;29;20451;-61
2023/12/01 07:22:14;;;;;;;22.47;8.30;;;2.60;98.00;;;;;;4954348;28;20488;-61
2023/12/01 07:24:41;;;;;;;17.63;8.33;;;2.60;98.00;;;;;;4954067;28;21012;-61
2023/12/01 07:27:09;;;;;;;18.37;7.93;;;2.60;98.00;;;;;;4954199;28;20459;-61
2023/12/01 07:29:42;;;;;;;18.13;8.03;;;2.60;98.00;;;;;;4954118;28;20451;-61
2023/12/01 07:32:09;;;;;;;18.90;8.30;;;2.60;98.00;;;;;;4954141;28;20456;-61
2023/12/01 07:34:36;;;;;;;18.60;7.60;;;2.60;98.00;;;;;;4953818;28;20502;-61
2023/12/01 07:37:10;;;;;;;19.23;8.27;;;2.60;98.00;;;;;;4953016;29;20454;-61
2023/12/01 07:39:37;;;;;;;20.27;9.03;;;2.60;98.00;;;;;;4953890;28;20468;-61
2023/12/01 07:42:05;;;;;;;19.57;8.20;;;2.50;98.00;;;;;;4954031;28;20952;-61
2023/12/01 07:44:32;;;;;;;18.10;7.70;;;2.50;98.00;;;;;;4953982;28;20458;-61
2023/12/01 07:47:01;;;;;;;17.30;8.53;;;2.50;98.00;;;;;;4953380;28;20454;-62
2023/12/01 07:49:28;;;;;;;18.43;7.90;;;2.60;98.00;;;;;;4952850;28;20489;-61
2023/12/01 07:51:55;;;;;;;19.00;7.70;;;2.60;98.00;;;;;;4954111;28;20458;-61
2023/12/01 07:54:23;;;;;;;17.80;7.60;;;2.60;98.00;;;;;;4953729;28;20537;-61
2023/12/01 07:56:50;;;;;;;22.47;8.53;;;2.60;98.00;;;;;;4953669;28;20466;-61
2023/12/01 07:59:18;;;;;;;22.13;8.40;;;2.60;98.00;;;;;;4953793;28;20497;-61
2023/12/01 08:01:45;;;;;;;18.90;8.53;;;2.60;98.00;;;;;;4953258;28;20468;-61
2023/12/01 08:04:13;;;;;;;19.90;8.60;;;2.60;98.00;;;;;;4952989;28;20512;-61
2023/12/01 08:06:41;;;;;;;29.27;10.07;;;2.60;98.00;;;;;;4953148;28;20458;-61
2023/12/01 08:09:08;;;;;;;20.80;8.73;;;2.60;98.00;;;;;;4952902;28;20453;-61
2023/12/01 08:11:37;;;;;;;20.53;9.10;;;2.70;98.00;;;;;;4952946;28;20455;-61
2023/12/01 08:14:04;;;;;;;19.07;9.10;;;2.70;98.00;;;;;;4952767;28;20513;-61
2023/12/01 08:16:31;;;;;;;21.73;9.40;;;2.60;98.00;;;;;;4952996;28;20454;-61
2023/12/01 08:18:59;;;;;;;23.47;9.60;;;2.60;98.00;;;;;;4953196;28;20452;-61
2023/12/01 08:21:26;;;;;;;22.60;9.53;;;2.70;98.00;;;;;;4953339;28;20458;-61
2023/12/01 08:23:53;;;;;;;25.83;10.33;;;2.80;98.00;;;;;;4951715;29;20491;-61
2023/12/01 08:26:23;;;;;;;20.60;9.67;;;2.80;98.00;;;;;;4953346;28;20502;-61
2023/12/01 08:28:51;;;;;;;25.17;9.50;;;2.80;98.00;;;;;;4953070;28;20462;-61
2023/12/01 08:31:18;;;;;;;23.47;9.67;;;2.80;98.00;;;;;;4953224;28;20535;-61
2023/12/01 08:33:46;;;;;;;23.80;9.93;;;2.80;98.00;;;;;;4969999;28;20548;-61
2023/12/01 08:36:14;;;;;;;24.87;9.00;;;2.70;98.00;;;;;;4972158;28;20525;-61
2023/12/01 08:38:42;;;;;;;24.30;9.40;;;2.80;98.00;;;;;;4972284;28;20462;-61
2023/12/01 08:41:09;;;;;;;22.87;10.10;;;3.10;98.00;;;;;;4960399;28;20564;-61
2023/12/01 08:43:36;;;;;;;21.57;9.73;;;3.20;98.00;;;;;;4952827;28;20494;-61
2023/12/01 08:46:06;;;;;;;23.73;9.40;;;3.20;98.00;;;;;;4953067;28;20451;-61
2023/12/01 08:48:33;;;;;;;23.20;9.30;;;3.20;98.00;;;;;;4948435;28;20896;-61
2023/12/01 08:51:00;;;;;;;23.63;9.60;;;3.00;98.00;;;;;;4934004;29;20460;-61
2023/12/01 08:53:28;;;;;;;32.27;11.30;;;2.90;98.00;;;;;;4934015;29;20964;-61
2023/12/01 08:55:57;;;;;;;25.10;10.20;;;3.00;98.00;;;;;;4934160;29;20464;-61
2023/12/01 08:58:24;;;;;;;25.00;10.47;;;2.90;98.00;;;;;;4933914;29;20599;-61
2023/12/01 09:00:51;;;;;;;23.50;10.17;;;2.80;98.00;;;;;;4933669;29;20499;-61
2023/12/01 09:03:21;;;;;;;20.47;9.33;;;2.90;98.00;;;;;;4933729;29;20500;-61
2023/12/01 09:05:48;;;;;;;22.80;9.97;;;2.90;98.00;;;;;;4931671;29;20538;-61
2023/12/01 09:08:15;;;;;;;25.97;11.00;;;2.90;98.00;;;;;;4951516;29;20472;-61
2023/12/01 09:10:43;;;;;;;32.97;12.10;;;3.10;98.00;;;;;;4937483;29;20452;-61
2023/12/01 09:13:10;;;;;;;26.40;12.17;;;3.00;98.00;;;;;;4937477;29;20460;-61
2023/12/01 09:15:37;;;;;;;29.03;11.47;;;2.90;98.00;;;;;;4937503;29;20452;-61
2023/12/01 09:18:04;;;;;;;32.50;11.80;;;2.90;98.00;;;;;;4935833;29;20463;-61
2023/12/01 09:20:32;;;;;;;30.17;11.40;;;2.90;98.00;;;;;;4937134;29;20796;-61
2023/12/01 09:22:59;;;;;;;26.20;10.97;;;2.90;98.00;;;;;;4937073;29;20838;-62
2023/12/01 09:25:27;;;;;;;23.43;10.17;;;3.00;98.00;;;;;;4937107;29;20469;-61
2023/12/01 09:27:54;;;;;;;22.47;10.13;;;3.00;98.00;;;;;;4937028;29;20473;-61
2023/12/01 09:30:21;;;;;;;28.50;10.97;;;3.10;98.00;;;;;;4937082;29;20488;-61
2023/12/01 09:32:49;;;;;;;27.40;10.93;;;3.20;98.00;;;;;;4937160;29;20471;-61
2023/12/01 09:35:16;;;;;;;32.97;12.23;;;3.20;98.00;;;;;;4937044;29;20461;-62
2023/12/01 09:37:44;;;;;;;28.53;12.23;;;3.40;98.00;;;;;;4936902;29;20513;-61
2023/12/01 09:40:12;;;;;;;25.97;11.07;;;3.50;98.00;;;;;;4936691;29;20464;-62
2023/12/01 09:42:41;;;;;;;31.87;11.67;;;3.40;98.00;;;;;;4936927;29;20543;-61
2023/12/01 09:45:10;;;;;;;35.97;11.07;;;3.40;98.00;;;;;;4935757;29;20464;-61
2023/12/01 09:47:41;;;;;;;41.27;12.57;;;3.60;98.00;;;;;;4936849;29;20453;-61
2023/12/01 09:50:14;;;;;;;31.00;12.17;;;3.50;98.00;;;;;;4936880;29;21045;-61
2023/12/01 09:52:42;;;;;;;29.80;10.87;;;3.60;98.00;;;;;;4936928;29;20546;-62
2023/12/01 09:55:10;;;;;;;29.67;9.87;;;3.40;98.00;;;;;;4936787;29;20463;-61
2023/12/01 09:57:38;;;;;;;25.77;10.67;;;3.20;98.00;;;;;;4936814;29;20845;-61
2023/12/01 10:00:10;;;;;;;28.93;11.50;;;3.20;98.00;;;;;;4936723;29;20494;-62
2023/12/01 10:02:38;;;;;;;29.20;11.57;;;3.10;98.00;;;;;;4936721;29;20464;-61
2023/12/01 10:05:07;;;;;;;24.90;10.57;;;3.10;98.00;;;;;;4936501;29;20958;-61
2023/12/01 10:07:34;;;;;;;23.80;10.60;;;3.10;98.00;;;;;;4936482;29;20542;-61
2023/12/01 10:10:17;;;;;;;28.77;11.27;;;3.00;98.00;;;;;;4936407;29;20452;-61
2023/12/01 10:12:55;;;;;;;32.03;11.63;;;3.00;98.00;;;;;;4936455;29;21000;-61
2023/12/01 10:15:24;;;;;;;29.40;11.90;;;3.10;98.00;;;;;;4936308;29;20484;-62
2023/12/01 10:17:51;;;;;;;25.60;10.67;;;3.10;98.00;;;;;;4935669;29;21054;-61
2023/12/01 10:20:21;;;;;;;27.40;11.23;;;3.00;98.00;;;;;;4936070;29;20460;-62
2023/12/01 10:22:48;;;;;;;22.87;10.23;;;3.10;98.00;;;;;;4936133;29;20459;-61
2023/12/01 10:25:15;;;;;;;23.30;10.07;;;3.10;98.00;;;;;;4936134;29;20465;-61
2023/12/01 10:27:42;;;;;;;25.03;10.77;;;3.20;98.00;;;;;;4936151;29;20469;-61
2023/12/01 10:30:15;;;;;;;32.63;11.07;;;3.30;98.00;;;;;;4936189;29;20457;-61
2023/12/01 10:35:17;;;;;;;26.20;10.07;;;3.60;98.00;;;;;;4914307;29;20505;-62
2023/12/01 10:37:45;;;;;;;28.17;10.73;;;3.60;98.00;;;;;;4917133;29;20477;-62
2023/12/01 10:40:14;;;;;;;28.17;10.77;;;3.60;98.00;;;;;;4917247;29;20457;-63
2023/12/01 10:42:42;;;;;;;27.60;11.90;;;3.50;98.00;;;;;;4917867;29;20462;-62
2023/12/01 10:45:12;;;;;;;29.20;11.20;;;3.50;98.00;;;;;;4938968;29;20518;-62
2023/12/01 10:47:47;;;;;;;25.57;10.67;;;3.40;98.00;;;;;;4938442;29;20461;-62
2023/12/01 10:50:17;;;;;;;26.27;11.17;;;3.40;98.00;;;;;;4938260;29;20493;-61
2023/12/01 10:52:47;;;;;;;29.53;10.70;;;3.30;98.00;;;;;;4938522;29;20494;-61
2023/12/01 10:55:15;;;;;;;32.83;12.33;;;3.30;98.00;;;;;;5146827;23;21055;-62
2023/12/01 10:57:45;;;;;;;27.27;11.40;;;3.20;98.00;;;;;;4957412;28;20971;-62
2023/12/01 11:00:29;;;;;;;31.57;11.60;;;3.10;98.00;;;;;;4958046;28;20465;-62
2023/12/01 11:03:03;;;;;;;30.27;11.17;;;3.10;98.00;;;;;;4957763;28;20473;-62
2023/12/01 11:05:32;;;;;;;28.43;11.70;;;3.00;98.00;;;;;;4958095;28;20527;-62
2023/12/01 11:08:14;;;;;;;33.50;11.17;;;3.00;98.00;;;;;;4958019;28;20466;-62
2023/12/01 11:10:53;;;;;;;29.47;12.73;;;3.00;98.00;;;;;;4957645;28;20464;-63
2023/12/01 11:13:29;;;;;;;26.07;11.80;;;3.00;98.00;;;;;;4957841;28;20460;-63
2023/12/01 11:15:57;;;;;;;27.20;11.70;;;3.00;98.00;;;;;;4957888;28;20460;-62
2023/12/01 11:18:26;;;;;;;31.80;11.80;;;3.00;98.00;;;;;;4954998;28;20468;-63
2023/12/01 11:20:59;;;;;;;30.30;10.60;;;3.00;98.00;;;;;;4955397;28;20473;-63
2023/12/01 11:23:30;;;;;;;27.33;11.63;;;3.00;98.00;;;;;;4959809;28;20480;-62
2023/12/01 11:26:05;;;;;;;26.40;11.27;;;2.90;98.00;;;;;;4974181;28;20943;-63
2023/12/01 11:28:42;;;;;;;28.73;12.00;;;2.90;98.00;;;;;;4973901;28;20454;-63
2023/12/01 11:31:13;;;;;;;22.60;10.63;;;2.90;98.00;;;;;;4973798;28;20514;-63
2023/12/01 11:33:45;;;;;;;25.03;11.53;;;2.90;98.00;;;;;;4973815;28;20463;-63
2023/12/01 11:36:43;;;;;;;26.57;11.00;;;3.00;98.00;;;;;;4973984;28;20457;-63
2023/12/01 11:39:20;;;;;;;23.70;9.90;;;3.00;98.00;;;;;;4973403;28;20462;-62
2023/12/01 11:42:13;;;;;;;24.10;10.10;;;3.00;98.00;;;;;;4973938;28;20468;-63
2023/12/01 11:44:42;;;;;;;25.40;9.73;;;3.20;98.00;;;;;;4973608;28;21086;-63
2023/12/01 11:47:12;;;;;;;26.97;10.27;;;3.20;98.00;;;;;;4973782;28;20462;-63
2023/12/01 11:49:43;;;;;;;25.93;11.70;;;3.30;98.00;;;;;;4973730;28;20463;-62
2023/12/01 11:52:12;;;;;;;28.97;10.80;;;3.20;98.00;;;;;;4973775;28;20462;-63
2023/12/01 11:54:40;;;;;;;26.33;10.73;;;3.10;98.00;;;;;;4973478;28;20525;-63
2023/12/01 11:57:08;;;;;;;26.77;11.23;;;3.10;98.00;;;;;;4972488;28;20455;-63
2023/12/01 11:59:36;;;;;;;28.53;11.03;;;3.10;98.00;;;;;;4973413;28;20802;-63
2023/12/01 12:02:05;;;;;;;25.73;10.20;;;3.10;98.00;;;;;;4973625;28;20489;-64
2023/12/01 12:04:32;;;;;;;24.30;10.63;;;3.10;98.00;;;;;;4973409;28;20485;-63
2023/12/01 12:07:01;;;;;;;20.80;10.00;;;3.00;98.00;;;;;;4973931;28;20455;-63
2023/12/01 12:09:31;;;;;;;24.90;11.23;;;2.90;98.00;;;;;;4973692;28;20456;-64
2023/12/01 12:11:59;;;;;;;19.97;8.83;;;3.00;98.00;;;;;;4973371;28;20461;-63
2023/12/01 12:14:29;;;;;;;26.20;10.27;;;3.00;98.00;;;;;;4973228;28;20516;-63
2023/12/01 12:16:56;;;;;;;22.63;10.03;;;3.00;98.00;;;;;;4972962;28;20458;-63
2023/12/01 12:19:24;;;;;;;23.67;10.07;;;3.20;98.00;;;;;;4988117;28;21024;-63
2023/12/01 12:21:51;;;;;;;22.57;9.93;;;3.30;98.00;;;;;;4972833;28;20458;-63
2023/12/01 12:24:19;;;;;;;22.63;9.83;;;3.30;98.00;;;;;;4972076;28;20924;-63
2023/12/01 12:26:56;;;;;;;23.77;10.07;;;3.40;98.00;;;;;;4973352;28;20966;-63
2023/12/01 12:29:23;;;;;;;31.63;10.73;;;3.30;98.00;;;;;;4973078;28;20511;-63
2023/12/01 12:31:51;;;;;;;25.10;10.67;;;3.30;98.00;;;;;;4972987;28;20506;-63
2023/12/01 12:34:18;;;;;;;30.83;11.50;;;3.20;98.00;;;;;;4972893;28;20457;-63
2023/12/01 12:36:46;;;;;;;26.00;10.77;;;3.10;98.00;;;;;;4973183;28;20919;-63
2023/12/01 12:39:16;;;;;;;24.60;10.70;;;3.10;98.00;;;;;;4973170;28;20465;-63
2023/12/01 12:41:52;;;;;;;27.90;11.37;;;3.10;98.00;;;;;;4972279;28;20477;-63
2023/12/01 12:44:20;;;;;;;36.63;12.87;;;3.10;98.00;;;;;;4972930;28;20536;-63
2023/12/01 12:46:59;;;;;;;28.67;11.33;;;3.00;98.00;;;;;;4972961;28;20449;-63
2023/12/01 12:49:29;;;;;;;25.90;9.67;;;2.90;98.00;;;;;;4973132;28;20548;-63
2023/12/01 12:51:58;;;;;;;23.73;10.73;;;2.90;98.00;;;;;;4972971;28;20446;-62
2023/12/01 12:54:25;;;;;;;29.20;10.40;;;2.80;98.00;;;;;;4972580;28;20485;-63